Time;durP1;ratioP1;P1;durP2;ratioP2;P2;SDS_P1;SDS_P2;PMS_P1;PMS_P2;Temp;Humidity;BMP_temperature;BMP_pressure;BME280_temperature;BME280_humidity;BME280_pressure;Samples;Min_cycle;Max_cycle;Signal;HPM_P1;HPM_P2
2022/10/14 00:01:59;;;;;;;12.10;7.53;;;;;;;;;;5027850;28;20211;-64
2022/10/14 00:04:26;;;;;;;11.90;7.30;;;;;;;;;;5026152;28;20228;-65
2022/10/14 00:06:53;;;;;;;11.37;6.83;;;;;;;;;;5026397;28;20201;-63
2022/10/14 00:09:21;;;;;;;11.17;6.20;;;;;;;;;;5024464;28;20212;-63
2022/10/14 00:11:48;;;;;;;8.47;6.27;;;;;;;;;;5026671;28;20295;-65
2022/10/14 00:14:16;;;;;;;11.57;6.40;;;;;;;;;;5026544;28;20207;-63
2022/10/14 00:16:45;;;;;;;11.20;6.73;;;;;;;;;;5025062;28;20291;-63
2022/10/14 00:19:13;;;;;;;12.93;6.10;;;;;;;;;;5026469;28;20204;-63
2022/10/14 00:21:41;;;;;;;13.30;6.67;;;;;;;;;;5025836;28;20208;-63
2022/10/14 00:24:08;;;;;;;10.23;6.87;;;;;;;;;;5026206;28;20311;-63
2022/10/14 00:26:36;;;;;;;15.33;7.20;;;;;;;;;;5026416;28;20263;-65
2022/10/14 00:29:05;;;;;;;14.17;7.27;;;;;;;;;;5024658;28;20603;-63
2022/10/14 00:31:32;;;;;;;10.90;5.80;;;;;;;;;;5026355;28;20204;-63
2022/10/14 00:34:00;;;;;;;12.80;6.73;;;;;;;;;;5026747;28;20204;-65
2022/10/14 00:36:28;;;;;;;9.70;6.43;;;;;;;;;;5027536;28;20216;-63
2022/10/14 00:38:55;;;;;;;9.15;6.10;;;;;;;;;;5027843;28;20212;-65
2022/10/14 00:41:23;;;;;;;11.30;6.67;;;;;;;;;;5027441;28;20587;-65
2022/10/14 00:43:59;;;;;;;9.30;6.77;;;;;;;;;;5027901;28;20691;-65
2022/10/14 00:46:26;;;;;;;9.83;6.60;;;;;;;;;;5030059;28;20208;-65
2022/10/14 00:48:54;;;;;;;10.47;6.43;;;;;;;;;;5028262;28;20223;-65
2022/10/14 00:51:22;;;;;;;8.80;6.33;;;;;;;;;;5030845;28;20250;-65
2022/10/14 00:53:50;;;;;;;9.93;6.13;;;;;;;;;;5029550;28;20211;-65
2022/10/14 00:56:20;;;;;;;11.60;6.83;;;;;;;;;;5031135;28;20215;-65
2022/10/14 00:58:47;;;;;;;10.30;6.27;;;;;;;;;;5029830;28;20227;-63
2022/10/14 01:01:14;;;;;;;7.50;5.53;;;;;;;;;;5029081;28;20710;-63
2022/10/14 01:03:41;;;;;;;8.80;6.23;;;;;;;;;;5026123;28;20616;-64
2022/10/14 01:06:19;;;;;;;10.40;5.87;;;;;;;;;;5030306;28;22045;-63
2022/10/14 01:08:50;;;;;;;8.07;6.10;;;;;;;;;;5028735;28;20203;-63
2022/10/14 01:11:20;;;;;;;9.67;6.80;;;;;;;;;;5026859;28;20204;-65
2022/10/14 01:13:51;;;;;;;11.43;6.23;;;;;;;;;;5027871;28;20208;-64
2022/10/14 01:16:21;;;;;;;8.70;6.20;;;;;;;;;;5029053;28;20201;-64
2022/10/14 01:18:57;;;;;;;8.10;6.10;;;;;;;;;;5028854;28;20200;-64
2022/10/14 01:21:27;;;;;;;14.80;6.27;;;;;;;;;;5028495;28;20235;-64
2022/10/14 01:24:15;;;;;;;9.17;6.07;;;;;;;;;;5027527;28;20247;-64
2022/10/14 01:26:54;;;;;;;10.67;6.47;;;;;;;;;;5027699;28;20236;-64
2022/10/14 01:29:28;;;;;;;6.10;5.43;;;;;;;;;;5028211;28;20765;-64
2022/10/14 01:32:00;;;;;;;9.03;5.80;;;;;;;;;;5029018;28;20203;-64
2022/10/14 01:34:31;;;;;;;7.80;5.87;;;;;;;;;;5028544;28;20573;-64
2022/10/14 01:37:00;;;;;;;7.82;5.80;;;;;;;;;;5028840;28;20213;-64
2022/10/14 01:39:29;;;;;;;8.20;5.63;;;;;;;;;;5029019;28;20667;-64
2022/10/14 01:42:00;;;;;;;9.87;6.30;;;;;;;;;;5028039;28;20208;-64
2022/10/14 01:44:27;;;;;;;9.43;6.13;;;;;;;;;;5027415;28;20228;-64
2022/10/14 01:46:55;;;;;;;9.47;5.83;;;;;;;;;;5029027;28;20683;-64
2022/10/14 01:49:27;;;;;;;7.80;6.10;;;;;;;;;;5027967;28;20204;-64
2022/10/14 01:51:58;;;;;;;12.97;6.63;;;;;;;;;;5028849;28;20693;-65
2022/10/14 01:54:27;;;;;;;9.87;6.50;;;;;;;;;;5028856;28;20189;-65
2022/10/14 01:56:54;;;;;;;9.77;6.33;;;;;;;;;;5027250;28;20223;-65
2022/10/14 01:59:22;;;;;;;14.10;6.40;;;;;;;;;;5028650;28;20223;-65
2022/10/14 02:01:59;;;;;;;9.83;6.10;;;;;;;;;;5027533;28;20208;-65
2022/10/14 02:04:27;;;;;;;9.80;6.30;;;;;;;;;;5029029;28;20232;-64
2022/10/14 02:06:58;;;;;;;8.30;5.87;;;;;;;;;;5028405;28;20204;-65
2022/10/14 02:09:30;;;;;;;11.10;6.27;;;;;;;;;;5028031;28;20207;-65
2022/10/14 02:12:02;;;;;;;10.07;6.60;;;;;;;;;;5028351;28;20216;-64
2022/10/14 02:14:34;;;;;;;8.43;6.03;;;;;;;;;;5028418;28;20205;-64
2022/10/14 02:17:04;;;;;;;14.13;6.57;;;;;;;;;;5027345;28;20209;-64
2022/10/14 02:19:35;;;;;;;11.03;6.30;;;;;;;;;;5028805;28;20200;-65
2022/10/14 02:22:06;;;;;;;8.83;6.37;;;;;;;;;;5028414;28;20201;-65
2022/10/14 02:24:34;;;;;;;8.30;5.77;;;;;;;;;;5028262;28;20615;-64
2022/10/14 02:27:04;;;;;;;7.33;6.03;;;;;;;;;;5028344;28;20240;-65
2022/10/14 02:29:31;;;;;;;7.47;6.23;;;;;;;;;;5027368;28;20236;-65
2022/10/14 02:32:00;;;;;;;8.43;6.47;;;;;;;;;;5027567;28;20208;-65
2022/10/14 02:34:27;;;;;;;7.13;5.87;;;;;;;;;;5028617;28;20202;-65
2022/10/14 02:37:05;;;;;;;7.97;6.03;;;;;;;;;;5028367;28;20212;-65
2022/10/14 02:39:36;;;;;;;9.37;6.23;;;;;;;;;;5028756;28;20571;-65
2022/10/14 02:42:04;;;;;;;10.97;6.37;;;;;;;;;;5028814;28;20205;-65
2022/10/14 02:44:31;;;;;;;9.20;6.23;;;;;;;;;;5029159;28;20278;-65
2022/10/14 02:46:58;;;;;;;8.90;6.73;;;;;;;;;;5029287;28;20215;-65
2022/10/14 02:49:25;;;;;;;8.53;6.00;;;;;;;;;;5028134;28;20211;-64
2022/10/14 02:51:52;;;;;;;10.67;6.43;;;;;;;;;;5027719;28;20313;-65
2022/10/14 02:54:20;;;;;;;8.30;5.67;;;;;;;;;;5027799;28;20624;-65
2022/10/14 02:56:47;;;;;;;10.67;5.80;;;;;;;;;;5027403;28;20597;-65
2022/10/14 02:59:14;;;;;;;8.17;5.80;;;;;;;;;;5028758;28;20200;-65
2022/10/14 03:01:41;;;;;;;8.00;6.03;;;;;;;;;;5027546;28;20197;-65
2022/10/14 03:04:08;;;;;;;7.07;5.50;;;;;;;;;;5026860;28;20224;-65
2022/10/14 03:06:36;;;;;;;13.57;7.10;;;;;;;;;;5027922;28;20207;-65
2022/10/14 03:09:03;;;;;;;7.90;5.80;;;;;;;;;;5027130;28;20212;-65
2022/10/14 03:11:31;;;;;;;11.53;6.37;;;;;;;;;;5026424;28;20209;-65
2022/10/14 03:13:58;;;;;;;8.83;5.73;;;;;;;;;;5027075;28;20211;-65
2022/10/14 03:16:25;;;;;;;9.57;5.70;;;;;;;;;;5026650;28;20209;-65
2022/10/14 03:18:52;;;;;;;10.07;5.93;;;;;;;;;;5027257;28;20686;-65
2022/10/14 03:21:19;;;;;;;9.73;5.70;;;;;;;;;;5022098;28;22001;-65
2022/10/14 03:23:46;;;;;;;8.67;5.77;;;;;;;;;;5026581;28;20255;-65
2022/10/14 03:26:13;;;;;;;10.37;6.17;;;;;;;;;;5026386;28;20334;-64
2022/10/14 03:28:42;;;;;;;7.80;5.73;;;;;;;;;;5025129;28;20208;-64
2022/10/14 03:31:09;;;;;;;10.63;5.73;;;;;;;;;;5026820;28;20208;-64
2022/10/14 03:33:36;;;;;;;10.70;6.23;;;;;;;;;;5025682;28;20675;-64
2022/10/14 03:36:03;;;;;;;8.70;6.03;;;;;;;;;;5026320;28;20215;-64
2022/10/14 03:38:30;;;;;;;13.30;5.97;;;;;;;;;;5026019;28;20211;-65
2022/10/14 03:40:57;;;;;;;8.97;6.27;;;;;;;;;;5026866;28;20220;-65
2022/10/14 03:43:25;;;;;;;8.53;5.23;;;;;;;;;;5024683;28;20228;-65
2022/10/14 03:45:53;;;;;;;7.70;5.77;;;;;;;;;;5026225;28;20625;-65
2022/10/14 03:48:20;;;;;;;8.83;5.63;;;;;;;;;;5027304;28;20663;-65
2022/10/14 03:50:47;;;;;;;10.90;5.50;;;;;;;;;;5026692;28;20587;-65
2022/10/14 03:53:14;;;;;;;10.30;5.90;;;;;;;;;;5026981;28;20343;-64
2022/10/14 03:55:41;;;;;;;9.47;5.47;;;;;;;;;;5026667;28;20224;-65
2022/10/14 03:58:09;;;;;;;9.53;6.00;;;;;;;;;;5025437;28;20219;-64
2022/10/14 04:00:36;;;;;;;8.67;6.10;;;;;;;;;;5025812;28;20209;-64
2022/10/14 04:03:05;;;;;;;8.37;5.87;;;;;;;;;;5025809;28;20311;-65
2022/10/14 04:05:32;;;;;;;8.90;5.77;;;;;;;;;;5026584;28;20228;-64
2022/10/14 04:07:59;;;;;;;8.77;5.43;;;;;;;;;;5024708;28;20230;-65
2022/10/14 04:10:27;;;;;;;8.50;5.73;;;;;;;;;;5025176;28;20227;-65
2022/10/14 04:12:54;;;;;;;8.00;5.60;;;;;;;;;;5026607;28;20219;-65
2022/10/14 04:15:22;;;;;;;7.80;5.57;;;;;;;;;;5025660;28;21890;-64
2022/10/14 04:17:49;;;;;;;7.72;4.60;;;;;;;;;;5026086;28;20222;-65
2022/10/14 04:20:18;;;;;;;8.27;5.43;;;;;;;;;;5025615;28;20208;-64
2022/10/14 04:22:45;;;;;;;10.73;5.60;;;;;;;;;;5026120;28;20200;-65
2022/10/14 04:25:12;;;;;;;7.83;5.37;;;;;;;;;;5026644;28;20250;-64
2022/10/14 04:27:39;;;;;;;6.93;5.47;;;;;;;;;;5025901;28;20240;-64
2022/10/14 04:30:07;;;;;;;7.70;4.70;;;;;;;;;;5027110;28;20208;-64
2022/10/14 04:32:34;;;;;;;8.23;5.20;;;;;;;;;;5026680;28;20204;-65
2022/10/14 04:35:01;;;;;;;7.83;5.53;;;;;;;;;;5025535;28;20204;-64
2022/10/14 04:37:30;;;;;;;7.43;5.50;;;;;;;;;;5025896;28;20260;-65
2022/10/14 04:39:57;;;;;;;5.93;4.80;;;;;;;;;;5027491;28;20215;-64
2022/10/14 04:42:24;;;;;;;9.37;5.53;;;;;;;;;;5028003;28;20583;-64
2022/10/14 04:44:51;;;;;;;9.13;5.37;;;;;;;;;;5025586;28;20232;-64
2022/10/14 04:47:18;;;;;;;7.97;5.90;;;;;;;;;;5027157;28;20216;-64
2022/10/14 04:49:45;;;;;;;10.07;5.10;;;;;;;;;;5025654;28;20200;-65
2022/10/14 04:52:12;;;;;;;9.70;5.37;;;;;;;;;;5023186;28;20208;-64
2022/10/14 04:54:40;;;;;;;10.20;5.17;;;;;;;;;;5025276;28;20205;-64
2022/10/14 04:57:08;;;;;;;11.50;5.93;;;;;;;;;;5024002;28;20200;-64
2022/10/14 04:59:35;;;;;;;7.00;5.57;;;;;;;;;;5025815;28;20213;-64
2022/10/14 05:02:03;;;;;;;6.67;5.63;;;;;;;;;;5025952;28;20215;-64
2022/10/14 05:04:30;;;;;;;7.77;5.53;;;;;;;;;;5023378;28;20230;-64
2022/10/14 05:06:57;;;;;;;10.25;5.65;;;;;;;;;;5023915;28;20209;-64
2022/10/14 05:09:24;;;;;;;7.33;5.30;;;;;;;;;;5026250;28;20215;-64
2022/10/14 05:11:52;;;;;;;11.47;5.37;;;;;;;;;;5021997;28;20652;-64
2022/10/14 05:14:19;;;;;;;9.40;5.70;;;;;;;;;;5025453;28;20207;-64
2022/10/14 05:16:46;;;;;;;9.50;5.83;;;;;;;;;;5024242;28;20627;-64
2022/10/14 05:19:14;;;;;;;11.03;5.93;;;;;;;;;;5025966;28;20215;-64
2022/10/14 05:21:41;;;;;;;9.07;5.77;;;;;;;;;;5025958;28;20211;-65
2022/10/14 05:24:08;;;;;;;7.63;5.30;;;;;;;;;;5022319;28;20228;-65
2022/10/14 05:26:35;;;;;;;8.23;5.10;;;;;;;;;;5026437;28;20240;-64
2022/10/14 05:29:04;;;;;;;10.97;5.93;;;;;;;;;;5027080;28;20200;-64
2022/10/14 05:31:31;;;;;;;9.03;5.70;;;;;;;;;;5029936;28;20262;-67
2022/10/14 05:33:58;;;;;;;11.90;5.30;;;;;;;;;;5030940;28;20200;-63
2022/10/14 05:36:25;;;;;;;10.10;6.07;;;;;;;;;;5030390;28;20212;-63
2022/10/14 05:38:55;;;;;;;10.60;5.00;;;;;;;;;;5029318;28;20200;-62
2022/10/14 05:41:22;;;;;;;10.13;6.10;;;;;;;;;;5030979;28;20235;-64
2022/10/14 05:43:49;;;;;;;8.03;5.67;;;;;;;;;;5028402;28;20212;-64
2022/10/14 05:46:17;;;;;;;7.97;5.40;;;;;;;;;;5031179;28;20215;-64
2022/10/14 05:48:44;;;;;;;7.03;5.00;;;;;;;;;;5028552;28;20211;-63
2022/10/14 05:51:12;;;;;;;8.03;5.33;;;;;;;;;;5030269;28;20262;-63
2022/10/14 05:53:39;;;;;;;10.37;6.00;;;;;;;;;;5030537;28;20215;-63
2022/10/14 05:56:07;;;;;;;6.97;5.53;;;;;;;;;;5030838;28;20212;-63
2022/10/14 05:58:34;;;;;;;8.10;5.30;;;;;;;;;;5028957;28;20920;-63
2022/10/14 06:01:01;;;;;;;8.30;6.13;;;;;;;;;;5030236;28;20586;-62
2022/10/14 06:03:30;;;;;;;8.47;6.07;;;;;;;;;;5029988;28;20228;-63
2022/10/14 06:05:57;;;;;;;9.10;5.90;;;;;;;;;;5030268;28;20236;-64
2022/10/14 06:08:25;;;;;;;7.93;5.93;;;;;;;;;;5030846;28;20219;-64
2022/10/14 06:10:52;;;;;;;11.63;6.20;;;;;;;;;;5030696;28;20220;-64
2022/10/14 06:13:19;;;;;;;8.23;4.97;;;;;;;;;;5030676;28;20216;-64
2022/10/14 06:15:46;;;;;;;9.33;5.97;;;;;;;;;;5030373;28;20215;-63
2022/10/14 06:18:13;;;;;;;11.23;5.53;;;;;;;;;;5030400;28;20227;-63
2022/10/14 06:20:42;;;;;;;9.83;5.70;;;;;;;;;;5030197;28;20216;-64
2022/10/14 06:23:09;;;;;;;7.23;5.50;;;;;;;;;;5030422;28;20211;-63
2022/10/14 06:25:36;;;;;;;7.33;5.63;;;;;;;;;;5030378;28;20232;-64
2022/10/14 06:28:04;;;;;;;10.13;5.93;;;;;;;;;;5029998;28;20251;-63
2022/10/14 06:30:31;;;;;;;12.23;6.47;;;;;;;;;;5030340;28;20219;-63
2022/10/14 06:32:58;;;;;;;9.80;6.33;;;;;;;;;;5028638;28;20213;-64
2022/10/14 06:35:25;;;;;;;8.03;5.87;;;;;;;;;;5029956;28;20208;-63
2022/10/14 06:37:54;;;;;;;9.00;6.07;;;;;;;;;;5029661;28;20572;-64
2022/10/14 06:40:21;;;;;;;8.57;6.30;;;;;;;;;;5030034;28;20205;-64
2022/10/14 06:42:48;;;;;;;9.10;5.90;;;;;;;;;;5029653;28;20705;-64
2022/10/14 06:45:15;;;;;;;13.33;6.77;;;;;;;;;;5030062;28;20251;-63
2022/10/14 06:47:42;;;;;;;8.00;5.97;;;;;;;;;;5026656;28;20216;-64
2022/10/14 06:50:09;;;;;;;10.87;6.23;;;;;;;;;;5029676;28;20210;-63
2022/10/14 06:52:36;;;;;;;14.00;7.10;;;;;;;;;;5029562;28;20212;-63
2022/10/14 06:55:05;;;;;;;9.60;6.40;;;;;;;;;;5030094;28;20230;-63
2022/10/14 06:57:32;;;;;;;11.23;5.77;;;;;;;;;;5029451;28;20212;-64
2022/10/14 06:59:59;;;;;;;7.43;5.70;;;;;;;;;;5029177;28;20212;-64
2022/10/14 07:02:26;;;;;;;10.10;6.40;;;;;;;;;;5024516;28;20216;-64
2022/10/14 07:04:56;;;;;;;10.53;6.03;;;;;;;;;;5021614;28;20707;-65
2022/10/14 07:07:23;;;;;;;8.83;5.77;;;;;;;;;;5025283;28;20682;-65
2022/10/14 07:09:51;;;;;;;10.73;6.17;;;;;;;;;;5029271;28;20231;-65
2022/10/14 07:12:19;;;;;;;8.40;5.43;;;;;;;;;;5029507;28;20674;-63
2022/10/14 07:14:46;;;;;;;10.50;6.00;;;;;;;;;;5029498;28;20562;-64
2022/10/14 07:17:13;;;;;;;14.37;7.37;;;;;;;;;;5029426;28;20212;-63
2022/10/14 07:19:41;;;;;;;10.13;5.97;;;;;;;;;;5029475;28;20304;-64
2022/10/14 07:22:08;;;;;;;11.23;6.37;;;;;;;;;;5029346;28;20208;-64
2022/10/14 07:24:35;;;;;;;11.30;6.50;;;;;;;;;;5028978;28;20224;-63
2022/10/14 07:27:03;;;;;;;11.33;7.00;;;;;;;;;;5028606;28;20263;-64
2022/10/14 07:29:33;;;;;;;8.33;6.27;;;;;;;;;;5028721;28;20611;-64
2022/10/14 07:32:00;;;;;;;9.80;6.63;;;;;;;;;;5029050;28;20204;-64
2022/10/14 07:34:28;;;;;;;10.43;6.40;;;;;;;;;;5029171;28;20698;-65
2022/10/14 07:36:55;;;;;;;10.87;6.40;;;;;;;;;;5027141;28;20672;-64
2022/10/14 07:39:22;;;;;;;12.27;6.57;;;;;;;;;;5029258;28;20207;-64
2022/10/14 07:41:49;;;;;;;13.83;7.10;;;;;;;;;;5029240;28;20240;-64
2022/10/14 07:44:17;;;;;;;11.17;7.43;;;;;;;;;;5028983;28;20212;-64
2022/10/14 07:46:47;;;;;;;9.93;6.97;;;;;;;;;;5029124;28;20647;-64
2022/10/14 07:49:15;;;;;;;13.40;8.00;;;;;;;;;;5028759;28;20606;-64
2022/10/14 07:51:42;;;;;;;13.87;7.67;;;;;;;;;;5028902;28;20213;-64
2022/10/14 07:54:12;;;;;;;18.67;7.40;;;;;;;;;;5027914;28;20616;-65
2022/10/14 07:56:39;;;;;;;12.23;7.60;;;;;;;;;;5028202;28;20227;-65
2022/10/14 07:59:07;;;;;;;13.27;8.00;;;;;;;;;;5028914;28;20223;-65
2022/10/14 08:01:34;;;;;;;13.33;6.77;;;;;;;;;;5028205;28;20213;-65
2022/10/14 08:04:02;;;;;;;13.97;8.27;;;;;;;;;;5027399;28;20235;-65
2022/10/14 08:06:29;;;;;;;12.98;7.40;;;;;;;;;;5027991;28;20570;-65
2022/10/14 08:08:56;;;;;;;10.07;6.40;;;;;;;;;;5028837;28;20212;-65
2022/10/14 08:11:25;;;;;;;10.87;7.37;;;;;;;;;;5027161;28;20210;-64
2022/10/14 08:13:52;;;;;;;16.67;7.63;;;;;;;;;;5027718;28;20211;-64
2022/10/14 08:16:21;;;;;;;9.95;7.03;;;;;;;;;;5027119;28;20219;-65
2022/10/14 08:18:48;;;;;;;17.10;7.40;;;;;;;;;;5025205;28;20216;-65
2022/10/14 08:21:17;;;;;;;9.07;5.93;;;;;;;;;;5026439;28;20216;-64
2022/10/14 08:23:44;;;;;;;14.17;6.53;;;;;;;;;;5024314;28;20686;-65
2022/10/14 08:26:18;;;;;;;7.40;5.68;;;;;;;;;;5026994;28;20247;-63
2022/10/14 08:28:45;;;;;;;9.73;6.03;;;;;;;;;;5027024;28;20212;-63
2022/10/14 08:31:12;;;;;;;11.35;7.13;;;;;;;;;;5027340;28;20200;-63
2022/10/14 08:33:39;;;;;;;17.73;10.50;;;;;;;;;;5027259;28;20216;-62
2022/10/14 08:36:06;;;;;;;14.10;6.85;;;;;;;;;;5027159;28;20212;-64
2022/10/14 08:38:35;;;;;;;10.95;7.13;;;;;;;;;;5027364;28;20204;-63
2022/10/14 08:41:06;;;;;;;12.13;7.05;;;;;;;;;;5027316;28;20568;-63
2022/10/14 08:43:36;;;;;;;8.07;6.30;;;;;;;;;;5026967;28;20204;-63
2022/10/14 08:46:06;;;;;;;11.57;6.20;;;;;;;;;;5026357;28;20228;-64
2022/10/14 08:48:34;;;;;;;13.10;6.25;;;;;;;;;;5025703;28;20213;-64
2022/10/14 08:51:03;;;;;;;14.90;6.63;;;;;;;;;;5026693;28;20205;-64
2022/10/14 08:53:34;;;;;;;7.43;5.83;;;;;;;;;;5025434;28;20205;-66
2022/10/14 08:56:02;;;;;;;9.45;6.55;;;;;;;;;;5027225;28;20208;-65
2022/10/14 08:58:32;;;;;;;9.23;5.65;;;;;;;;;;5027265;28;20208;-65
2022/10/14 09:01:01;;;;;;;12.73;7.60;;;;;;;;;;5027024;28;20223;-62
2022/10/14 09:03:32;;;;;;;12.55;6.10;;;;;;;;;;5025617;28;20326;-61
2022/10/14 09:06:01;;;;;;;11.48;7.70;;;;;;;;;;5011341;28;20232;-64
2022/10/14 09:08:31;;;;;;;9.85;7.07;;;;;;;;;;5031601;28;20196;-63
2022/10/14 09:10:58;;;;;;;8.27;6.68;;;;;;;;;;5020928;28;20304;-63
2022/10/14 09:13:29;;;;;;;9.07;5.97;;;;;;;;;;5031451;28;20235;-63
2022/10/14 09:15:58;;;;;;;8.10;5.75;;;;;;;;;;5031765;28;20213;-63
2022/10/14 09:18:28;;;;;;;6.97;5.93;;;;;;;;;;5031188;28;20590;-63
2022/10/14 09:20:56;;;;;;;9.23;6.38;;;;;;;;;;5031554;28;20219;-63
2022/10/14 09:23:24;;;;;;;11.02;5.82;;;;;;;;;;5031559;28;20683;-63
2022/10/14 09:25:56;;;;;;;7.68;5.43;;;;;;;;;;5029547;28;20228;-63
2022/10/14 09:28:25;;;;;;;8.80;5.30;;;;;;;;;;5017869;28;20236;-64
2022/10/14 09:30:54;;;;;;;9.32;5.07;;;;;;;;;;5030282;28;20295;-64
2022/10/14 09:33:21;;;;;;;6.40;4.57;;;;;;;;;;5029755;28;20204;-63
2022/10/14 09:35:49;;;;;;;9.00;5.25;;;;;;;;;;5027300;28;21006;-64
2022/10/14 09:38:16;;;;;;;5.30;4.82;;;;;;;;;;5040745;28;20208;-63
2022/10/14 09:40:44;;;;;;;7.55;4.65;;;;;;;;;;5032281;28;20219;-63
2022/10/14 09:43:16;;;;;;;15.43;4.80;;;;;;;;;;5031666;28;20205;-63
2022/10/14 09:45:51;;;;;;;6.43;5.03;;;;;;;;;;5026277;28;20236;-63
2022/10/14 09:48:23;;;;;;;6.32;4.50;;;;;;;;;;5040732;28;20207;-63
2022/10/14 09:50:51;;;;;;;7.88;4.93;;;;;;;;;;5044314;28;20594;-63
2022/10/14 09:53:19;;;;;;;9.48;5.25;;;;;;;;;;5032237;28;20216;-65
2022/10/14 09:55:48;;;;;;;4.10;3.70;;;;;;;;;;5039184;28;20208;-63
2022/10/14 09:58:17;;;;;;;5.20;4.15;;;;;;;;;;5049086;28;20218;-63
2022/10/14 10:00:45;;;;;;;5.78;4.13;;;;;;;;;;5040846;28;20208;-63
2022/10/14 10:03:26;;;;;;;11.45;4.68;;;;;;;;;;5031702;28;20359;-63
2022/10/14 10:06:00;;;;;;;7.10;5.20;;;;;;;;;;5038533;28;20504;-65
2022/10/14 10:08:27;;;;;;;10.02;5.00;;;;;;;;;;5029597;28;20231;-65
2022/10/14 10:10:57;;;;;;;5.60;4.25;;;;;;;;;;5029692;28;20241;-65
2022/10/14 10:13:33;;;;;;;6.35;4.40;;;;;;;;;;5036143;28;20216;-67
2022/10/14 10:16:02;;;;;;;8.45;4.63;;;;;;;;;;5045109;28;20986;-66
2022/10/14 10:18:32;;;;;;;4.18;3.78;;;;;;;;;;5038556;28;20247;-67
2022/10/14 10:21:05;;;;;;;4.85;3.85;;;;;;;;;;5047154;28;20238;-67
2022/10/14 10:23:33;;;;;;;5.70;3.50;;;;;;;;;;5043677;28;20223;-65
2022/10/14 10:26:14;;;;;;;4.60;3.55;;;;;;;;;;5041373;28;20293;-65
2022/10/14 10:28:45;;;;;;;7.65;3.40;;;;;;;;;;5032494;28;20204;-65
2022/10/14 10:31:18;;;;;;;4.10;3.70;;;;;;;;;;5022731;28;20229;-65
2022/10/14 10:33:52;;;;;;;5.20;3.78;;;;;;;;;;5030406;28;20212;-65
2022/10/14 10:36:22;;;;;;;4.22;3.85;;;;;;;;;;5041017;28;20195;-65
2022/10/14 10:38:55;;;;;;;4.15;3.75;;;;;;;;;;5041518;28;20718;-65
2022/10/14 10:41:26;;;;;;;5.28;3.70;;;;;;;;;;5045771;28;20239;-65
2022/10/14 10:44:06;;;;;;;7.38;3.55;;;;;;;;;;5031967;28;20217;-65
2022/10/14 10:46:40;;;;;;;3.97;3.58;;;;;;;;;;5028870;28;20232;-64
2022/10/14 10:49:16;;;;;;;3.17;2.97;;;;;;;;;;5028885;28;20211;-64
2022/10/14 10:51:46;;;;;;;4.18;3.33;;;;;;;;;;5028545;28;20212;-64
2022/10/14 10:54:21;;;;;;;4.53;3.40;;;;;;;;;;5028431;28;20212;-65
2022/10/14 10:56:49;;;;;;;3.40;3.10;;;;;;;;;;5028827;28;20208;-64
2022/10/14 10:59:32;;;;;;;4.53;2.90;;;;;;;;;;5028776;28;20675;-65
2022/10/14 11:02:05;;;;;;;3.45;3.15;;;;;;;;;;5028675;28;20220;-64
2022/10/14 11:04:36;;;;;;;4.05;3.35;;;;;;;;;;5019284;28;20596;-65
2022/10/14 11:12:45;;;;;;;5.93;3.30;;;;;;;;;;5011879;28;20748;-64
2022/10/14 11:15:18;;;;;;;3.55;2.92;;;;;;;;;;5027402;28;20208;-66
2022/10/14 11:17:49;;;;;;;4.15;3.33;;;;;;;;;;5027336;28;20201;-66
2022/10/14 11:20:28;;;;;;;3.30;2.97;;;;;;;;;;5027687;28;20274;-68
2022/10/14 11:23:07;;;;;;;3.80;3.40;;;;;;;;;;5027113;28;20226;-67
2022/10/14 11:25:41;;;;;;;7.28;3.25;;;;;;;;;;5027394;28;20219;-67
2022/10/14 11:28:11;;;;;;;3.97;2.58;;;;;;;;;;5026516;28;20236;-67
2022/10/14 11:30:42;;;;;;;3.25;2.95;;;;;;;;;;5026381;28;20219;-67
2022/10/14 11:33:16;;;;;;;6.00;3.22;;;;;;;;;;5027238;28;20987;-67
2022/10/14 11:35:49;;;;;;;3.08;2.75;;;;;;;;;;5032270;28;20204;-67
2022/10/14 11:38:23;;;;;;;3.38;2.97;;;;;;;;;;5040570;28;20262;-67
2022/10/14 11:40:56;;;;;;;4.80;3.60;;;;;;;;;;5020162;28;20219;-67
2022/10/14 11:43:27;;;;;;;4.18;3.00;;;;;;;;;;5022216;28;20581;-67
2022/10/14 11:45:56;;;;;;;3.00;2.80;;;;;;;;;;5022721;28;20263;-67
2022/10/14 11:48:27;;;;;;;2.92;2.67;;;;;;;;;;5024104;28;20209;-68
2022/10/14 11:50:57;;;;;;;6.43;3.55;;;;;;;;;;5025751;28;20220;-67
2022/10/14 11:53:27;;;;;;;3.17;2.97;;;;;;;;;;5026944;28;20204;-67
2022/10/14 11:56:02;;;;;;;3.53;2.80;;;;;;;;;;5028571;28;20216;-67
2022/10/14 11:58:30;;;;;;;4.47;2.90;;;;;;;;;;5039041;28;20219;-67
2022/10/14 12:01:00;;;;;;;3.28;2.97;;;;;;;;;;5026648;28;20620;-67
2022/10/14 12:03:34;;;;;;;3.28;2.97;;;;;;;;;;5026437;28;20761;-67
2022/10/14 12:06:04;;;;;;;3.00;2.70;;;;;;;;;;5034813;28;20227;-67
2022/10/14 12:08:34;;;;;;;2.92;2.75;;;;;;;;;;5031502;28;20231;-67
2022/10/14 12:11:05;;;;;;;2.85;2.65;;;;;;;;;;5046369;28;20214;-67
2022/10/14 12:13:34;;;;;;;7.43;3.20;;;;;;;;;;5031186;28;20218;-67
2022/10/14 12:16:04;;;;;;;3.72;3.05;;;;;;;;;;5027497;28;20307;-67
2022/10/14 12:18:32;;;;;;;3.13;2.90;;;;;;;;;;5026977;28;20239;-67
2022/10/14 12:21:07;;;;;;;3.20;3.00;;;;;;;;;;5032708;28;20212;-67
2022/10/14 12:23:38;;;;;;;3.72;3.10;;;;;;;;;;5035812;28;20214;-66
2022/10/14 12:26:11;;;;;;;2.92;2.63;;;;;;;;;;5025093;28;20231;-66
2022/10/14 12:28:38;;;;;;;5.53;2.28;;;;;;;;;;5026840;28;20212;-68
2022/10/14 12:31:24;;;;;;;3.42;2.72;;;;;;;;;;5040988;28;20214;-68
2022/10/14 12:34:13;;;;;;;3.00;2.75;;;;;;;;;;5032503;28;20212;-68
2022/10/14 12:36:41;;;;;;;3.13;2.60;;;;;;;;;;5029826;28;20301;-68
2022/10/14 12:39:27;;;;;;;2.95;2.58;;;;;;;;;;5025618;28;20287;-69
2022/10/14 12:41:58;;;;;;;3.22;2.92;;;;;;;;;;5027788;28;20212;-68
2022/10/14 12:44:30;;;;;;;3.60;3.30;;;;;;;;;;5025323;28;20196;-69
2022/10/14 12:46:57;;;;;;;2.83;2.58;;;;;;;;;;5024856;28;20224;-69
2022/10/14 12:49:27;;;;;;;3.78;3.05;;;;;;;;;;5033602;28;20215;-72
2022/10/14 12:51:55;;;;;;;2.70;2.50;;;;;;;;;;5031674;28;20215;-64
2022/10/14 12:54:22;;;;;;;3.65;3.28;;;;;;;;;;5026033;28;20208;-68
2022/10/14 12:56:56;;;;;;;3.42;2.75;;;;;;;;;;5026706;28;20204;-68
2022/10/14 12:59:25;;;;;;;3.55;3.28;;;;;;;;;;5026303;28;20208;-71
2022/10/14 13:01:56;;;;;;;3.03;2.58;;;;;;;;;;4989352;28;20247;-71
2022/10/14 13:04:24;;;;;;;2.92;2.78;;;;;;;;;;4913597;28;20230;-71
2022/10/14 13:07:09;;;;;;;11.23;2.85;;;;;;;;;;4962584;28;20738;-70
2022/10/14 13:09:36;;;;;;;3.55;3.15;;;;;;;;;;5015034;28;20300;-68
2022/10/14 13:12:34;;;;;;;3.25;3.03;;;;;;;;;;5011272;28;20200;-70
2022/10/14 13:15:03;;;;;;;3.85;3.42;;;;;;;;;;5004125;28;20213;-73
2022/10/14 13:17:44;;;;;;;7.10;3.58;;;;;;;;;;5001967;28;20208;-70
2022/10/14 13:20:32;;;;;;;4.10;3.50;;;;;;;;;;5005829;28;20734;-69
2022/10/14 13:23:16;;;;;;;4.07;3.70;;;;;;;;;;4981523;28;20213;-70
2022/10/14 13:25:43;;;;;;;3.83;3.50;;;;;;;;;;5007129;28;20220;-70
2022/10/14 13:28:16;;;;;;;4.10;3.47;;;;;;;;;;5004380;28;20237;-68
2022/10/14 13:30:50;;;;;;;3.70;3.40;;;;;;;;;;5005612;28;20205;-69
2022/10/14 13:33:21;;;;;;;3.80;3.10;;;;;;;;;;5004981;28;20211;-70
2022/10/14 13:35:53;;;;;;;6.50;3.50;;;;;;;;;;4999048;28;20205;-67
2022/10/14 13:38:22;;;;;;;5.68;3.40;;;;;;;;;;4996484;28;20201;-71
2022/10/14 13:40:50;;;;;;;3.67;3.38;;;;;;;;;;5005966;28;20296;-70
2022/10/14 13:43:19;;;;;;;6.88;3.10;;;;;;;;;;5006409;28;20197;-71
2022/10/14 13:45:48;;;;;;;3.38;3.08;;;;;;;;;;5004475;28;20592;-71
2022/10/14 13:48:18;;;;;;;3.95;3.60;;;;;;;;;;5004144;28;20229;-71
2022/10/14 13:50:47;;;;;;;3.58;2.67;;;;;;;;;;5003197;28;20216;-69
2022/10/14 13:53:15;;;;;;;3.97;3.45;;;;;;;;;;5009142;28;20213;-71
2022/10/14 13:55:43;;;;;;;4.28;3.50;;;;;;;;;;5009879;28;20630;-72
2022/10/14 13:58:12;;;;;;;3.63;2.85;;;;;;;;;;5005492;28;20224;-70
2022/10/14 14:00:40;;;;;;;6.57;3.47;;;;;;;;;;5010354;28;20205;-72
2022/10/14 14:03:15;;;;;;;6.43;3.10;;;;;;;;;;5009858;28;20664;-70
2022/10/14 14:05:44;;;;;;;3.33;2.78;;;;;;;;;;5015711;28;20240;-66
2022/10/14 14:08:16;;;;;;;37.58;12.15;;;;;;;;;;5007993;28;20221;-69
2022/10/14 14:10:51;;;;;;;7.70;5.25;;;;;;;;;;5010885;28;20208;-72
2022/10/14 14:13:18;;;;;;;4.47;3.40;;;;;;;;;;5010451;28;20208;-71
2022/10/14 14:15:49;;;;;;;3.67;3.42;;;;;;;;;;5003143;28;20213;-71
2022/10/14 14:18:26;;;;;;;5.32;3.13;;;;;;;;;;5008623;28;20563;-72
2022/10/14 14:20:58;;;;;;;3.60;3.30;;;;;;;;;;5006122;28;20216;-70
2022/10/14 14:23:25;;;;;;;3.72;3.40;;;;;;;;;;5003179;28;20620;-70
2022/10/14 14:25:52;;;;;;;3.88;3.58;;;;;;;;;;5001104;28;20297;-70
2022/10/14 14:28:19;;;;;;;4.22;3.70;;;;;;;;;;5001773;28;20568;-71
2022/10/14 14:30:49;;;;;;;3.30;2.92;;;;;;;;;;5004158;28;20586;-71
2022/10/14 14:33:18;;;;;;;4.05;3.75;;;;;;;;;;5001130;28;20201;-71
2022/10/14 14:35:53;;;;;;;6.35;3.45;;;;;;;;;;5001921;28;20196;-70
2022/10/14 14:38:29;;;;;;;3.78;3.47;;;;;;;;;;5006224;28;20673;-71
2022/10/14 14:41:03;;;;;;;3.78;3.40;;;;;;;;;;5009828;28;20211;-71
2022/10/14 14:43:31;;;;;;;3.78;3.47;;;;;;;;;;5012089;28;20217;-71
2022/10/14 14:46:01;;;;;;;4.45;3.78;;;;;;;;;;5014195;28;20216;-72
2022/10/14 14:48:28;;;;;;;5.50;4.32;;;;;;;;;;5021996;28;20733;-71
2022/10/14 14:50:55;;;;;;;5.07;3.45;;;;;;;;;;5012663;28;20301;-72
2022/10/14 14:53:28;;;;;;;6.70;3.60;;;;;;;;;;5013054;28;20208;-72
2022/10/14 14:56:02;;;;;;;4.53;3.45;;;;;;;;;;5023086;28;20211;-72
2022/10/14 14:58:31;;;;;;;4.57;3.75;;;;;;;;;;5014303;28;20200;-72